createdAt,value
2019-03-30T00:00:44.523Z,7.79
2019-03-30T00:03:33.414Z,7.75
2019-03-30T00:06:23.016Z,7.58
2019-03-30T00:09:12.715Z,7.60
2019-03-30T00:12:02.668Z,7.53
2019-03-30T00:14:52.250Z,7.27
2019-03-30T00:17:41.215Z,7.30
2019-03-30T00:20:30.818Z,7.31
2019-03-30T00:23:20.098Z,7.34
2019-03-30T00:26:10.420Z,7.25
2019-03-30T00:28:59.887Z,7.17
2019-03-30T00:31:48.682Z,7.16
2019-03-30T00:36:01.794Z,7.14
2019-03-30T00:38:51.396Z,7.11
2019-03-30T00:41:40.887Z,7.08
2019-03-30T00:44:29.975Z,7.08
2019-03-30T00:47:19.623Z,7.03
2019-03-30T00:50:09.625Z,7.06
2019-03-30T00:52:58.851Z,7.02
2019-03-30T00:55:47.998Z,6.99
2019-03-30T00:58:37.657Z,6.89
2019-03-30T01:01:27.666Z,6.75
2019-03-30T01:04:16.938Z,6.72
2019-03-30T01:07:06.475Z,6.76
2019-03-30T01:09:55.710Z,6.76
2019-03-30T01:12:44.750Z,6.72
2019-03-30T01:15:34.172Z,6.66
2019-03-30T01:18:24.026Z,6.67
2019-03-30T01:21:13.846Z,6.68
2019-03-30T01:24:03.663Z,6.68
2019-03-30T01:26:53.232Z,6.66
2019-03-30T01:29:42.219Z,6.62
2019-03-30T01:32:31.280Z,6.65
2019-03-30T01:35:21.066Z,6.64
2019-03-30T01:38:10.975Z,6.62
2019-03-30T01:41:00.088Z,6.57
2019-03-30T01:43:49.131Z,6.56
2019-03-30T01:46:38.824Z,6.49
2019-03-30T01:49:28.281Z,6.49
2019-03-30T01:52:18.181Z,6.47
2019-03-30T01:55:08.136Z,6.45
2019-03-30T01:57:56.664Z,6.39
2019-03-30T02:00:45.372Z,6.32
2019-03-30T02:03:34.954Z,6.28
2019-03-30T02:06:24.604Z,6.24
2019-03-30T02:09:13.999Z,6.23
2019-03-30T02:12:03.636Z,6.17
2019-03-30T02:14:53.418Z,6.15
2019-03-30T02:17:42.798Z,6.17
2019-03-30T02:20:51.165Z,6.21
2019-03-30T02:23:40.399Z,6.19
2019-03-30T02:26:30.171Z,6.22
2019-03-30T02:29:19.663Z,6.09
2019-03-30T02:32:09.024Z,5.91
2019-03-30T02:34:58.646Z,5.61
2019-03-30T02:37:48.393Z,5.53
2019-03-30T02:40:37.718Z,5.50
2019-03-30T02:43:27.484Z,5.42
2019-03-30T02:46:17.191Z,5.40
2019-03-30T02:49:06.776Z,5.34
2019-03-30T02:51:55.683Z,5.47
2019-03-30T02:54:45.492Z,5.58
2019-03-30T02:57:34.533Z,5.62
2019-03-30T03:00:23.972Z,5.69
2019-03-30T03:03:13.698Z,5.47
2019-03-30T03:06:02.470Z,5.60
2019-03-30T03:08:51.982Z,5.66
2019-03-30T03:11:41.617Z,5.58
2019-03-30T03:14:31.133Z,5.60
2019-03-30T03:17:20.505Z,5.58
2019-03-30T03:20:10.921Z,5.59
2019-03-30T03:23:00.198Z,5.62
2019-03-30T03:25:49.138Z,5.63
2019-03-30T03:28:38.720Z,5.70
2019-03-30T03:31:28.241Z,5.80
2019-03-30T03:34:17.866Z,5.67
2019-03-30T03:37:07.610Z,5.53
2019-03-30T03:39:57.107Z,5.42
2019-03-30T03:42:46.681Z,5.37
2019-03-30T03:45:36.473Z,5.39
2019-03-30T03:48:26.057Z,5.42
2019-03-30T03:51:26.311Z,5.48
2019-03-30T03:54:08.971Z,5.43
2019-03-30T03:56:59.732Z,5.38
2019-03-30T03:59:51.897Z,5.34
2019-03-30T04:02:42.063Z,5.26
2019-03-30T04:05:32.022Z,5.26
2019-03-30T04:08:23.279Z,5.25
2019-03-30T04:11:14.774Z,5.27
2019-03-30T04:14:05.267Z,5.26
2019-03-30T04:16:55.033Z,5.25
2019-03-30T04:19:43.950Z,5.17
2019-03-30T04:22:33.572Z,5.16
2019-03-30T04:25:22.889Z,5.17
2019-03-30T04:28:12.375Z,5.14
2019-03-30T04:31:00.947Z,5.12
2019-03-30T04:33:49.824Z,5.11
2019-03-30T04:36:39.323Z,5.00
2019-03-30T04:39:30.330Z,5.02
2019-03-30T04:42:19.981Z,5.04
2019-03-30T04:45:09.729Z,4.98
2019-03-30T04:47:59.117Z,4.96
2019-03-30T04:50:48.485Z,5.00
2019-03-30T04:53:37.729Z,5.05
2019-03-30T04:56:27.621Z,5.07
2019-03-30T04:59:17.219Z,5.02
2019-03-30T05:02:06.417Z,4.88
2019-03-30T05:04:55.898Z,4.80
2019-03-30T05:07:45.339Z,4.83
2019-03-30T05:10:35.227Z,4.81
2019-03-30T05:13:24.295Z,4.83
2019-03-30T05:16:13.371Z,4.91
2019-03-30T05:19:02.258Z,4.97
2019-03-30T05:21:51.734Z,5.02
2019-03-30T05:24:41.011Z,5.04
2019-03-30T05:27:30.480Z,5.02
2019-03-30T05:30:19.779Z,4.98
2019-03-30T05:33:10.783Z,4.82
2019-03-30T05:36:00.135Z,4.83
2019-03-30T05:38:49.349Z,4.89
2019-03-30T05:41:38.915Z,4.93
2019-03-30T05:44:28.242Z,4.92
2019-03-30T05:47:17.587Z,5.00
2019-03-30T05:50:07.005Z,5.07
2019-03-30T05:52:56.657Z,5.03
2019-03-30T05:55:46.621Z,5.11
2019-03-30T05:58:35.457Z,5.13
2019-03-30T06:01:25.124Z,5.19
2019-03-30T06:04:14.755Z,5.26
2019-03-30T06:07:03.909Z,5.34
2019-03-30T06:09:53.194Z,5.47
2019-03-30T06:12:42.171Z,5.56
2019-03-30T06:15:31.739Z,5.48
2019-03-30T06:18:21.443Z,5.44
2019-03-30T06:21:12.139Z,5.45
2019-03-30T06:24:00.973Z,5.45
2019-03-30T06:26:50.494Z,5.63
2019-03-30T06:29:39.647Z,5.80
2019-03-30T06:32:29.230Z,5.99
2019-03-30T06:35:18.810Z,6.21
2019-03-30T06:38:08.556Z,6.35
2019-03-30T06:40:57.809Z,6.49
2019-03-30T06:43:47.170Z,6.59
2019-03-30T06:46:39.476Z,6.68
2019-03-30T06:49:28.283Z,6.79
2019-03-30T06:52:17.335Z,6.90
2019-03-30T06:55:07.114Z,7.05
2019-03-30T06:57:56.054Z,7.19
2019-03-30T07:00:48.031Z,7.29
2019-03-30T07:03:37.575Z,7.46
2019-03-30T07:06:29.110Z,7.58
2019-03-30T07:09:21.439Z,7.71
2019-03-30T07:12:10.876Z,7.78
2019-03-30T07:15:03.012Z,7.93
2019-03-30T07:17:54.420Z,8.04
2019-03-30T07:20:44.257Z,8.18
2019-03-30T07:23:33.219Z,8.29
2019-03-30T07:26:22.803Z,8.41
2019-03-30T07:29:12.583Z,8.55
2019-03-30T07:32:02.260Z,8.61
2019-03-30T07:34:51.454Z,8.69
2019-03-30T07:37:40.855Z,8.81
2019-03-30T07:40:30.219Z,8.92
2019-03-30T07:43:19.740Z,8.97
2019-03-30T07:46:08.996Z,9.11
2019-03-30T07:48:58.564Z,9.20
2019-03-30T07:51:47.951Z,9.33
2019-03-30T07:54:40.494Z,9.47
2019-03-30T07:57:30.387Z,9.59
2019-03-30T08:00:19.827Z,9.68
2019-03-30T08:03:09.867Z,9.74
2019-03-30T08:05:59.296Z,9.76
2019-03-30T08:08:48.728Z,9.87
2019-03-30T08:11:37.502Z,9.99
2019-03-30T08:14:26.785Z,10.11
2019-03-30T08:17:16.235Z,10.19
2019-03-30T08:20:06.579Z,10.26
2019-03-30T08:22:57.577Z,10.32
2019-03-30T08:25:46.531Z,10.39
2019-03-30T08:28:36.445Z,10.42
2019-03-30T08:31:25.577Z,10.44
2019-03-30T08:34:14.645Z,10.51
2019-03-30T08:37:04.082Z,10.62
2019-03-30T08:39:53.550Z,10.70
2019-03-30T08:42:43.377Z,10.80
2019-03-30T08:45:33.012Z,10.91
2019-03-30T08:48:22.849Z,11.06
2019-03-30T08:51:12.332Z,11.15
2019-03-30T08:54:01.707Z,11.24
2019-03-30T08:56:51.598Z,11.32
2019-03-30T08:59:40.946Z,11.41
2019-03-30T09:02:30.704Z,11.52
2019-03-30T09:05:20.050Z,11.63
2019-03-30T09:08:09.717Z,11.79
2019-03-30T09:10:58.631Z,11.91
2019-03-30T09:13:48.464Z,12.08
2019-03-30T09:16:38.318Z,12.21
2019-03-30T09:19:27.480Z,12.30
2019-03-30T09:22:16.191Z,12.45
2019-03-30T09:25:05.992Z,12.49
2019-03-30T09:27:54.827Z,12.65
2019-03-30T09:30:44.453Z,12.79
2019-03-30T09:33:33.185Z,12.87
2019-03-30T09:36:22.209Z,12.95
2019-03-30T09:39:12.001Z,13.02
2019-03-30T09:42:01.766Z,13.15
2019-03-30T09:44:51.503Z,13.26
2019-03-30T09:47:40.889Z,13.40
2019-03-30T09:50:30.258Z,13.59
2019-03-30T09:53:20.031Z,13.68
2019-03-30T09:56:09.440Z,13.92
2019-03-30T09:58:58.601Z,13.85
2019-03-30T10:01:48.353Z,13.93
2019-03-30T10:04:37.653Z,14.02
2019-03-30T10:07:26.976Z,14.09
2019-03-30T10:10:16.639Z,14.14
2019-03-30T10:13:06.052Z,14.22
2019-03-30T10:15:55.827Z,14.28
2019-03-30T10:18:45.556Z,14.44
2019-03-30T10:21:34.443Z,14.51
2019-03-30T10:24:37.435Z,14.68
2019-03-30T10:27:14.763Z,14.91
2019-03-30T10:30:04.696Z,15.13
2019-03-30T10:32:54.274Z,15.21
2019-03-30T10:35:44.009Z,15.15
2019-03-30T10:38:33.302Z,15.18
2019-03-30T10:41:22.825Z,15.25
2019-03-30T10:44:12.437Z,15.35
2019-03-30T10:47:01.762Z,15.46
2019-03-30T10:49:54.374Z,15.62
2019-03-30T10:52:43.714Z,15.75
2019-03-30T10:55:33.384Z,15.83
2019-03-30T10:58:23.166Z,15.90
2019-03-30T11:01:12.720Z,15.97
2019-03-30T11:04:02.169Z,16.11
2019-03-30T11:06:51.621Z,16.09
2019-03-30T11:09:41.054Z,16.09
2019-03-30T11:12:30.133Z,16.07
2019-03-30T11:15:19.204Z,16.09
2019-03-30T11:18:10.586Z,16.08
2019-03-30T11:21:04.076Z,16.15
2019-03-30T11:23:53.626Z,16.38
2019-03-30T11:26:42.762Z,16.73
2019-03-30T11:29:32.346Z,16.73
2019-03-30T11:32:21.237Z,16.84
2019-03-30T11:35:10.974Z,17.12
2019-03-30T11:38:00.900Z,17.10
2019-03-30T11:40:50.382Z,17.27
2019-03-30T11:43:39.912Z,17.47
2019-03-30T11:46:29.184Z,17.61
2019-03-30T11:49:18.421Z,17.82
2019-03-30T11:52:07.650Z,17.99
2019-03-30T11:54:57.058Z,18.17
2019-03-30T11:57:46.565Z,18.23
2019-03-30T12:00:37.281Z,18.15
2019-03-30T12:03:27.019Z,17.82
2019-03-30T12:06:17.072Z,17.95
2019-03-30T12:09:08.255Z,18.07
2019-03-30T12:11:57.586Z,18.33
2019-03-30T12:14:47.051Z,18.51
2019-03-30T12:17:36.916Z,18.72
2019-03-30T12:20:26.211Z,18.53
2019-03-30T12:23:15.459Z,18.60
2019-03-30T12:26:05.001Z,18.00
2019-03-30T12:28:54.569Z,18.29
2019-03-30T12:31:43.687Z,18.53
2019-03-30T12:34:33.095Z,18.85
2019-03-30T12:37:22.535Z,19.10
2019-03-30T12:40:12.152Z,19.33
2019-03-30T12:43:01.276Z,19.40
2019-03-30T12:45:50.839Z,19.12
2019-03-30T12:48:39.897Z,19.31
2019-03-30T12:51:29.539Z,19.50
2019-03-30T12:54:18.872Z,19.02
2019-03-30T12:57:08.503Z,18.80
2019-03-30T12:59:59.339Z,18.95
2019-03-30T13:02:49.018Z,19.25
2019-03-30T13:05:38.479Z,19.62
2019-03-30T13:08:27.473Z,19.71
2019-03-30T13:11:16.463Z,19.69
2019-03-30T13:14:05.680Z,19.97
2019-03-30T13:16:55.287Z,20.02
2019-03-30T13:19:44.467Z,20.15
2019-03-30T13:22:34.371Z,19.95
2019-03-30T13:25:23.987Z,20.24
2019-03-30T13:28:13.687Z,20.49
2019-03-30T13:31:03.078Z,20.06
2019-03-30T13:33:52.334Z,20.44
2019-03-30T13:36:42.646Z,20.97
2019-03-30T13:39:32.361Z,20.97
2019-03-30T13:42:21.442Z,20.81
2019-03-30T13:45:11.183Z,20.75
2019-03-30T13:48:00.351Z,21.21
2019-03-30T13:50:49.116Z,21.49
2019-03-30T13:53:38.599Z,21.82
2019-03-30T13:56:28.289Z,21.78
2019-03-30T13:59:17.429Z,22.21
2019-03-30T14:02:06.213Z,22.79
2019-03-30T14:04:55.976Z,23.23
2019-03-30T14:07:45.331Z,23.97
2019-03-30T14:10:34.327Z,24.54
2019-03-30T14:13:23.651Z,24.07
2019-03-30T14:16:13.249Z,24.63
2019-03-30T14:19:02.479Z,24.12
2019-03-30T14:21:52.232Z,23.45
2019-03-30T14:24:41.239Z,24.83
2019-03-30T14:27:31.013Z,25.15
2019-03-30T14:30:20.147Z,25.97
2019-03-30T14:33:09.300Z,26.98
2019-03-30T14:35:59.338Z,27.44
2019-03-30T14:38:48.149Z,28.49
2019-03-30T14:41:37.149Z,29.26
2019-03-30T14:44:26.983Z,29.82
2019-03-30T14:47:16.131Z,30.22
2019-03-30T14:50:07.085Z,29.71
2019-03-30T14:52:56.112Z,28.50
2019-03-30T14:55:45.301Z,28.27
2019-03-30T14:58:34.465Z,29.41
2019-03-30T15:01:23.704Z,27.45
2019-03-30T15:04:13.166Z,26.57
2019-03-30T15:07:02.777Z,27.91
2019-03-30T15:09:52.523Z,28.68
2019-03-30T15:12:41.979Z,29.65
2019-03-30T15:15:31.536Z,30.09
2019-03-30T15:18:20.818Z,29.65
2019-03-30T15:21:09.885Z,29.49
2019-03-30T15:23:59.322Z,29.61
2019-03-30T15:26:59.802Z,30.16
2019-03-30T15:29:39.830Z,29.71
2019-03-30T15:32:28.507Z,28.38
2019-03-30T15:35:17.592Z,29.16
2019-03-30T15:38:07.324Z,29.34
2019-03-30T15:40:56.769Z,29.13
2019-03-30T15:43:45.952Z,27.69
2019-03-30T15:46:35.114Z,28.06
2019-03-30T15:49:24.370Z,26.38
2019-03-30T15:52:14.485Z,27.12
2019-03-30T15:55:04.221Z,26.92
2019-03-30T15:57:53.560Z,27.55
2019-03-30T16:00:43.271Z,27.91
2019-03-30T16:03:32.959Z,28.01
2019-03-30T16:06:22.602Z,27.02
2019-03-30T16:09:11.618Z,26.66
2019-03-30T16:12:01.053Z,27.42
2019-03-30T16:14:50.480Z,27.19
2019-03-30T16:17:39.949Z,26.41
2019-03-30T16:20:29.005Z,26.84
2019-03-30T16:23:18.514Z,26.33
2019-03-30T16:26:07.221Z,24.67
2019-03-30T16:28:56.519Z,23.94
2019-03-30T16:31:46.099Z,23.81
2019-03-30T16:34:34.752Z,23.14
2019-03-30T16:37:24.352Z,22.70
2019-03-30T16:40:13.837Z,22.16
2019-03-30T16:43:02.796Z,21.70
2019-03-30T16:45:52.194Z,21.23
2019-03-30T16:48:41.420Z,21.25
2019-03-30T16:51:30.277Z,21.06
2019-03-30T16:54:19.902Z,20.70
2019-03-30T16:57:09.227Z,20.67
2019-03-30T16:59:58.683Z,20.28
2019-03-30T17:02:48.018Z,20.26
2019-03-30T17:05:37.320Z,20.11
2019-03-30T17:08:26.951Z,20.02
2019-03-30T17:11:16.687Z,19.94
2019-03-30T17:14:05.881Z,19.82
2019-03-30T17:16:54.463Z,19.63
2019-03-30T17:19:43.832Z,19.52
2019-03-30T17:22:33.647Z,19.35
2019-03-30T17:25:22.255Z,19.13
2019-03-30T17:28:10.950Z,19.00
2019-03-30T17:30:59.864Z,18.83
2019-03-30T17:33:50.071Z,18.64
2019-03-30T17:36:39.257Z,18.40
2019-03-30T17:39:28.882Z,18.26
2019-03-30T17:42:18.343Z,18.05
2019-03-30T17:45:08.352Z,17.90
2019-03-30T17:47:57.953Z,17.74
2019-03-30T17:50:46.969Z,17.55
2019-03-30T17:53:39.291Z,17.40
2019-03-30T17:56:27.530Z,17.22
2019-03-30T17:59:16.457Z,17.08
2019-03-30T18:02:06.195Z,16.91
2019-03-30T18:04:55.322Z,16.82
2019-03-30T18:07:44.996Z,16.72
2019-03-30T18:10:34.734Z,16.58
2019-03-30T18:13:23.951Z,16.40
2019-03-30T18:16:13.160Z,16.29
2019-03-30T18:19:02.199Z,16.17
2019-03-30T18:21:51.824Z,15.83
2019-03-30T18:24:41.332Z,15.83
2019-03-30T18:27:30.643Z,15.71
2019-03-30T18:30:35.113Z,15.61
2019-03-30T18:33:25.234Z,15.49
2019-03-30T18:36:18.682Z,15.49
2019-03-30T18:39:10.059Z,15.35
2019-03-30T18:41:59.206Z,15.26
2019-03-30T18:44:50.641Z,15.23
2019-03-30T18:47:39.911Z,15.20
2019-03-30T18:50:31.450Z,15.09
2019-03-30T18:53:20.354Z,14.97
2019-03-30T18:56:09.750Z,14.94
2019-03-30T18:58:59.122Z,14.92
2019-03-30T19:01:49.081Z,14.86
2019-03-30T19:04:38.574Z,14.84
2019-03-30T19:07:28.038Z,14.80
2019-03-30T19:10:17.337Z,14.73
2019-03-30T19:13:07.005Z,14.71
2019-03-30T19:15:55.900Z,14.61
2019-03-30T19:18:45.354Z,14.53
2019-03-30T19:21:34.733Z,14.44
2019-03-30T19:24:24.035Z,14.34
2019-03-30T19:27:12.854Z,14.31
2019-03-30T19:30:02.707Z,14.33
2019-03-30T19:32:52.730Z,14.22
2019-03-30T19:35:42.397Z,14.07
2019-03-30T19:38:32.075Z,13.69
2019-03-30T19:41:21.691Z,13.58
2019-03-30T19:44:11.101Z,13.63
2019-03-30T19:47:01.097Z,13.68
2019-03-30T19:49:50.943Z,13.78
2019-03-30T19:52:40.740Z,13.79
2019-03-30T19:55:30.706Z,13.79
2019-03-30T19:58:20.227Z,13.71
2019-03-30T20:01:09.216Z,13.53
2019-03-30T20:03:58.332Z,13.42
2019-03-30T20:06:48.990Z,13.40
2019-03-30T20:09:38.218Z,13.23
2019-03-30T20:12:28.066Z,13.05
2019-03-30T20:15:18.492Z,12.90
2019-03-30T20:18:08.553Z,12.87
2019-03-30T20:20:59.332Z,12.80
2019-03-30T20:23:48.533Z,12.77
2019-03-30T20:26:37.830Z,12.65
2019-03-30T20:29:27.795Z,12.62
2019-03-30T20:32:17.650Z,12.42
2019-03-30T20:35:08.902Z,12.41
2019-03-30T20:37:58.207Z,12.38
2019-03-30T20:40:47.122Z,12.37
2019-03-30T20:43:36.433Z,12.32
2019-03-30T20:46:25.997Z,12.30
2019-03-30T20:49:15.396Z,12.32
2019-03-30T20:52:04.937Z,12.34
2019-03-30T20:54:54.670Z,12.15
2019-03-30T20:57:43.954Z,12.08
2019-03-30T21:00:34.155Z,12.02
2019-03-30T21:03:23.217Z,11.95
2019-03-30T21:06:13.126Z,11.85
2019-03-30T21:09:02.619Z,11.77
2019-03-30T21:11:52.342Z,11.76
2019-03-30T21:14:41.813Z,11.68
2019-03-30T21:17:31.405Z,11.59
2019-03-30T21:20:20.569Z,11.52
2019-03-30T21:23:09.687Z,11.56
2019-03-30T21:25:58.811Z,11.64
2019-03-30T21:28:48.207Z,11.56
2019-03-30T21:31:37.561Z,11.33
2019-03-30T21:34:27.347Z,11.22
2019-03-30T21:37:17.048Z,11.18
2019-03-30T21:40:07.298Z,11.12
2019-03-30T21:42:56.480Z,11.07
2019-03-30T21:45:46.151Z,11.03
2019-03-30T21:48:35.949Z,10.89
2019-03-30T21:51:25.442Z,10.78
2019-03-30T21:54:15.070Z,10.72
2019-03-30T21:57:04.326Z,10.63
2019-03-30T21:59:53.596Z,10.58
2019-03-30T22:02:42.986Z,10.57
2019-03-30T22:05:34.567Z,10.62
2019-03-30T22:08:22.884Z,10.66
2019-03-30T22:11:11.819Z,10.62
2019-03-30T22:14:00.795Z,10.54
2019-03-30T22:16:50.118Z,10.57
2019-03-30T22:19:39.204Z,10.62
2019-03-30T22:22:28.734Z,10.49
2019-03-30T22:25:18.228Z,10.35
2019-03-30T22:28:07.716Z,10.38
2019-03-30T22:30:56.783Z,10.46
2019-03-30T22:33:48.250Z,10.50
2019-03-30T22:36:38.520Z,10.36
2019-03-30T22:39:28.275Z,10.21
2019-03-30T22:42:17.557Z,10.13
2019-03-30T22:45:07.293Z,10.07
2019-03-30T22:47:56.743Z,10.05
2019-03-30T22:50:46.409Z,10.06
2019-03-30T22:53:36.329Z,10.14
2019-03-30T22:56:25.015Z,10.14
2019-03-30T22:59:14.235Z,10.17
2019-03-30T23:02:03.681Z,10.21
2019-03-30T23:04:53.299Z,10.13
2019-03-30T23:07:42.695Z,9.99
2019-03-30T23:10:31.440Z,9.92
2019-03-30T23:13:20.681Z,9.95
2019-03-30T23:16:09.489Z,9.87
2019-03-30T23:18:59.199Z,9.80
2019-03-30T23:21:48.718Z,9.72
2019-03-30T23:24:37.610Z,9.63
2019-03-30T23:27:26.971Z,9.60
2019-03-30T23:30:17.063Z,9.62
2019-03-30T23:33:06.314Z,9.68
2019-03-30T23:35:55.803Z,9.73
2019-03-30T23:38:45.547Z,9.71
2019-03-30T23:41:35.165Z,9.67
2019-03-30T23:44:24.079Z,9.45
2019-03-30T23:47:13.689Z,9.31
2019-03-30T23:50:02.877Z,9.24
2019-03-30T23:52:52.433Z,9.22
2019-03-30T23:55:42.193Z,9.20
2019-03-30T23:58:31.994Z,9.25
